πŸ“Š DonnΓ©es MΓ©tΓ©o - Bordeaux

Total mesures

14,371

TempΓ©rature moyenne

18.8Β°C

Temp. Min/Max

2.9Β° / 42.4Β°

HumiditΓ© moyenne

64.9%

Pression moyenne

1014.7 hPa
enregistrements
ID Date/Heure Temp (Β°C) HumiditΓ© (%) Pression (hPa) Tendance LuminositΓ© (lux) Situation
12571 07/08/2026 14:15 32.9 23.0 1,015.9 β†’ Stable 94,080 chaleur-seche
12570 07/08/2026 13:45 32.5 24.0 1,016.6 β†’ Stable 99,720 chaleur-seche
12569 07/08/2026 13:15 32.2 25.0 1,016.8 β†’ Stable 103,524 chaleur-seche
12568 07/08/2026 12:45 31.7 26.0 1,017.5 β†’ Stable 105,924 chaleur-seche
12567 07/08/2026 12:15 31.2 26.0 1,017.5 β†’ Stable 106,668 chaleur-seche
12566 07/08/2026 11:45 30.7 27.0 1,018.2 β†’ Stable 105,552 chaleur-seche
12565 07/08/2026 11:15 30.2 28.0 1,018.2 β†’ Stable 103,428 chaleur-seche
12564 07/08/2026 10:45 29.5 31.0 1,018.8 β†’ Stable 98,892 conditions-neutrales-ou-non-definies
12563 07/08/2026 10:15 28.6 33.0 1,018.8 β†’ Stable 93,708 confortablement-chaud (approx.)
12562 07/08/2026 09:45 27.4 35.0 1,018.9 β†’ Stable 86,208 confortablement-chaud (approx.)
12561 07/08/2026 09:15 26.3 39.0 1,018.9 β†’ Stable 78,708 confortablement-chaud (approx.)
12560 07/08/2026 08:45 25.1 42.0 1,019.1 β†’ Stable 68,700 confortablement-chaud (approx.)
12559 07/08/2026 08:15 24.3 42.0 1,019.1 β†’ Stable 59,628 confortablement-chaud (approx.)
12558 07/08/2026 07:45 22.6 44.0 1,019.2 β†’ Stable 48,144 frais-stable
12557 07/08/2026 07:15 21.6 50.0 1,019.2 β†’ Stable 38,244 frais-stable
12556 07/08/2026 06:45 20.0 62.0 1,019.2 β†’ Stable 26,664 frais-stable
12555 07/08/2026 06:15 18.1 73.0 1,019.2 β†’ Stable 16,668 pluvieux-gris (approx.)
12554 07/08/2026 05:45 17.0 79.0 1,019.1 β†’ Stable 7,404 pluvieux-gris (approx.)
12553 07/08/2026 05:15 17.0 82.0 1,019.1 β†’ Stable 372 pluvieux-gris (approx.)
12552 07/08/2026 04:45 17.1 83.0 1,018.8 β†’ Stable 0 pluvieux-gris (approx.)
12551 07/08/2026 04:15 17.4 82.0 1,018.8 β†’ Stable 0 pluvieux-gris (approx.)
12550 07/08/2026 03:45 17.4 82.0 1,018.8 β†’ Stable 0 pluvieux-gris (approx.)
12549 07/08/2026 03:15 17.7 81.0 1,018.8 β†’ Stable 0 pluvieux-gris (approx.)
12548 07/08/2026 02:45 17.9 79.0 1,018.8 β†’ Stable 0 pluvieux-gris (approx.)
12547 07/08/2026 02:15 18.1 78.0 1,018.8 β†’ Stable 0 pluvieux-gris (approx.)
12546 07/08/2026 01:45 18.3 75.0 1,019.1 β†’ Stable 0 pluvieux-gris (approx.)
12545 07/08/2026 01:15 18.6 74.0 1,019.1 β†’ Stable 0 pluvieux-gris (approx.)
12544 07/08/2026 00:45 18.8 72.0 1,019.5 β†’ Stable 0 pluvieux-gris (approx.)
12543 07/08/2026 00:15 19.3 69.0 1,019.5 β†’ Stable 0 frais-stable
12542 06/08/2026 23:45 19.7 66.0 1,019.7 β†’ Stable 0 frais-stable
12541 06/08/2026 23:15 20.2 63.0 1,019.7 β†’ Stable 0 frais-stable
12540 06/08/2026 22:45 20.5 62.0 1,020.4 β†’ Stable 0 frais-stable
12539 06/08/2026 22:15 21.0 60.0 1,020.4 β†’ Stable 0 frais-stable
12538 06/08/2026 21:45 21.4 59.0 1,020.4 β†’ Stable 0 frais-stable
12537 06/08/2026 21:15 22.2 57.0 1,020.4 β†’ Stable 0 frais-stable
12536 06/08/2026 20:45 22.8 56.0 1,019.8 β†’ Stable 0 frais-stable
12535 06/08/2026 20:15 23.7 53.0 1,019.8 β†’ Stable 0 conditions-neutrales-ou-non-definies
12534 06/08/2026 19:45 24.4 51.0 1,019.1 β†’ Stable 0 confortablement-chaud (approx.)
12533 06/08/2026 19:15 25.8 44.0 1,019.1 β†’ Stable 0 confortablement-chaud (approx.)
12532 06/08/2026 18:45 26.9 40.0 1,018.7 β†’ Stable 8,052 confortablement-chaud (approx.)
12531 06/08/2026 18:15 28.0 33.0 1,018.7 β†’ Stable 18,060 conditions-neutrales-ou-non-definies
12530 06/08/2026 17:45 28.6 30.0 1,018.7 β†’ Stable 28,332 conditions-neutrales-ou-non-definies
12529 06/08/2026 17:15 29.1 28.0 1,018.7 β†’ Stable 38,424 conditions-neutrales-ou-non-definies
12528 06/08/2026 16:45 29.3 27.0 1,018.8 β†’ Stable 49,908 conditions-neutrales-ou-non-definies
12527 06/08/2026 16:15 29.5 26.0 1,018.8 β†’ Stable 59,820 conditions-neutrales-ou-non-definies
12526 06/08/2026 15:45 29.6 26.0 1,019.1 β†’ Stable 70,188 conditions-neutrales-ou-non-definies
12525 06/08/2026 15:15 29.5 27.0 1,019.1 β†’ Stable 78,516 conditions-neutrales-ou-non-definies
12524 06/08/2026 14:45 29.6 28.0 1,019.3 β†’ Stable 86,760 conditions-neutrales-ou-non-definies
12523 06/08/2026 14:15 29.5 30.0 1,019.3 β†’ Stable 93,336 conditions-neutrales-ou-non-definies
12522 06/08/2026 13:45 29.6 30.0 1,020.1 β†’ Stable 98,328 conditions-neutrales-ou-non-definies
12521 06/08/2026 13:15 28.7 34.0 1,020.1 β†’ Stable 102,408 confortablement-chaud (approx.)
12520 06/08/2026 12:45 28.3 36.0 1,020.8 β†’ Stable 104,628 confortablement-chaud (approx.)
12519 06/08/2026 12:15 27.6 39.0 1,020.8 β†’ Stable 105,648 confortablement-chaud (approx.)
12518 06/08/2026 11:45 26.8 40.0 1,021.1 β†’ Stable 104,724 confortablement-chaud
12517 06/08/2026 11:15 26.2 40.0 1,021.1 β†’ Stable 102,504 confortablement-chaud
12516 06/08/2026 10:45 25.4 40.0 1,021.3 β†’ Stable 96,576 confortablement-chaud
12515 06/08/2026 10:15 24.8 39.0 1,021.3 β†’ Stable 88,428 confortablement-chaud (approx.)
12514 06/08/2026 09:45 23.8 44.0 1,021.3 β†’ Stable 82,032 confortablement-chaud (approx.)
12513 06/08/2026 09:15 23.3 47.0 1,021.3 β†’ Stable 76,020 confortablement-chaud (approx.)
12512 06/08/2026 08:45 22.3 53.0 1,021.3 β†’ Stable 67,968 frais-stable
12511 06/08/2026 08:15 21.4 60.0 1,021.3 β†’ Stable 52,404 frais-stable
12510 06/08/2026 07:45 20.6 65.0 1,021.2 β†’ Stable 43,608 frais-stable
12509 06/08/2026 07:15 20.3 67.0 1,021.2 β†’ Stable 34,164 frais-stable
12508 06/08/2026 06:45 19.7 71.0 1,021.4 β†’ Stable 25,368 pluvieux-gris (approx.)
12507 06/08/2026 06:15 18.8 77.0 1,021.4 β†’ Stable 12,312 pluvieux-gris (approx.)
12506 06/08/2026 06:00 18.7 79.0 1,021.4 β†’ Stable 9,168 pluvieux-gris (approx.)
12505 06/08/2026 05:45 18.6 79.0 1,021.0 β†’ Stable 6,576 pluvieux-gris (approx.)
12504 06/08/2026 05:15 18.7 77.0 1,020.9 β†’ Stable 924 pluvieux-gris (approx.)
12503 06/08/2026 04:45 18.8 77.0 1,020.7 β†’ Stable 0 pluvieux-gris (approx.)
12502 06/08/2026 04:15 19.1 77.0 1,020.7 β†’ Stable 0 pluvieux-gris (approx.)
12501 06/08/2026 03:45 19.3 76.0 1,020.5 β†’ Stable 0 pluvieux-gris (approx.)
12500 06/08/2026 03:15 19.3 76.0 1,020.5 β†’ Stable 0 pluvieux-gris (approx.)
12499 06/08/2026 02:45 19.4 77.0 1,020.5 β†’ Stable 0 pluvieux-gris (approx.)
12498 06/08/2026 02:15 20.0 77.0 1,020.5 β†’ Stable 0 pluvieux-gris (approx.)
12497 06/08/2026 01:45 20.1 75.0 1,020.4 β†’ Stable 0 pluvieux-gris (approx.)
12496 06/08/2026 01:15 19.6 77.0 1,020.4 β†’ Stable 0 pluvieux-gris (approx.)
12495 06/08/2026 00:45 19.8 76.0 1,020.5 β†’ Stable 0 pluvieux-gris (approx.)
12494 06/08/2026 00:15 20.3 72.0 1,020.5 β†’ Stable 0 pluvieux-gris (approx.)
12493 05/08/2026 23:45 20.6 69.0 1,020.4 β†’ Stable 0 frais-stable
12492 05/08/2026 23:15 20.9 68.0 1,020.4 β†’ Stable 0 frais-stable
12491 05/08/2026 22:45 21.2 69.0 1,020.7 β†’ Stable 0 frais-stable
12490 05/08/2026 22:15 22.0 64.0 1,020.7 β†’ Stable 0 frais-stable
12489 05/08/2026 21:45 22.3 64.0 1,020.5 β†’ Stable 0 frais-stable
12488 05/08/2026 21:15 22.7 63.0 1,020.5 β†’ Stable 0 frais-stable
12487 05/08/2026 20:45 22.8 63.0 1,019.8 β†’ Stable 0 frais-stable
12486 05/08/2026 20:15 23.2 60.0 1,019.8 β†’ Stable 0 conditions-neutrales-ou-non-definies
12485 05/08/2026 19:45 23.7 57.0 1,019.1 β†’ Stable 0 conditions-neutrales-ou-non-definies
12484 05/08/2026 19:15 24.6 51.0 1,019.1 β†’ Stable 2,220 confortablement-chaud (approx.)
12483 05/08/2026 18:45 25.4 47.0 1,018.7 β†’ Stable 9,072 confortablement-chaud (approx.)
12482 05/08/2026 18:15 26.5 44.0 1,018.7 β†’ Stable 18,984 confortablement-chaud (approx.)
12481 05/08/2026 17:45 27.0 45.0 1,018.3 β†’ Stable 28,236 confortablement-chaud (approx.)
12480 05/08/2026 17:15 28.0 43.0 1,018.3 β†’ Stable 39,348 confortablement-chaud (approx.)
12479 05/08/2026 16:45 28.4 41.0 1,018.1 β†’ Stable 48,888 confortablement-chaud (approx.)
12478 05/08/2026 16:15 28.8 41.0 1,018.1 β†’ Stable 37,128 confortablement-chaud (approx.)
12477 05/08/2026 15:45 29.0 41.0 1,017.9 β†’ Stable 37,968 confortablement-chaud (approx.)
12476 05/08/2026 15:15 29.3 42.0 1,017.9 β†’ Stable 59,820 conditions-neutrales-ou-non-definies
12475 05/08/2026 14:45 29.3 42.0 1,017.9 β†’ Stable 61,200 conditions-neutrales-ou-non-definies
12474 05/08/2026 14:15 28.8 43.0 1,017.9 β†’ Stable 60,372 confortablement-chaud (approx.)
12473 05/08/2026 13:45 29.4 41.0 1,018.1 β†’ Stable 66,024 conditions-neutrales-ou-non-definies
12472 05/08/2026 13:15 28.9 42.0 1,018.4 β†’ Stable 78,240 confortablement-chaud